Time;durP1;ratioP1;P1;durP2;ratioP2;P2;SDS_P1;SDS_P2;PMS_P1;PMS_P2;Temp;Humidity;BMP_temperature;BMP_pressure;BME280_temperature;BME280_humidity;BME280_pressure;Samples;Min_cycle;Max_cycle;Signal;HPM_P1;HPM_P2
2022/11/21 20:00:52;;;;;;;10.10;3.00;;;;;;;13.48;78.33;98316.83;30966;1319;3013174;-72
2022/11/21 20:03:22;;;;;;;12.10;3.50;;;;;;;13.99;77.04;98295.70;24585;1322;3027459;-72
2022/11/21 20:05:51;;;;;;;18.20;4.00;;;;;;;14.20;75.78;98292.10;24577;1323;3027703;-71
2022/11/21 20:08:20;;;;;;;23.90;4.80;;;;;;;14.07;75.96;98293.31;24607;1337;3049488;-68
2022/11/21 20:10:50;;;;;;;15.20;4.00;;;;;;;13.95;75.92;98295.10;24469;1329;3028725;-65
2022/11/21 20:13:17;;;;;;;20.20;4.80;;;;;;;13.69;76.99;98303.33;23556;1322;3026274;-71
2022/11/21 20:15:46;;;;;;;13.40;3.80;;;;;;;13.60;77.53;98289.59;24675;1327;3048414;-70
2022/11/21 20:18:19;;;;;;;16.10;4.70;;;;;;;13.53;77.95;98290.91;24624;1326;3028269;-69
2022/11/21 20:20:48;;;;;;;9.10;2.70;;;;;;;13.45;78.25;98285.30;24667;1327;3028528;-69
2022/11/21 20:23:17;;;;;;;21.10;3.60;;;;;;;13.88;76.75;98263.55;24648;1321;3026690;-72
2022/11/21 20:25:50;;;;;;;10.60;3.80;;;;;;;14.20;75.05;98258.63;24673;1331;3067913;-70
2022/11/21 20:28:19;;;;;;;15.20;4.50;;;;;;;14.24;74.53;98255.43;24652;1327;3030131;-70
2022/11/21 20:30:49;;;;;;;14.40;3.60;;;;;;;14.12;74.63;98245.62;24652;1327;3029649;-69
2022/11/21 20:33:17;;;;;;;16.70;4.30;;;;;;;13.90;75.16;98239.94;24700;1327;3026485;-71
2022/11/21 20:35:47;;;;;;;12.20;3.10;;;;;;;13.86;75.19;98243.50;24651;1327;3049756;-71
2022/11/21 20:38:16;;;;;;;13.00;3.00;;;;;;;13.75;75.60;98248.44;24674;1324;3027058;-67
2022/11/21 20:40:51;;;;;;;12.30;3.20;;;;;;;13.65;76.14;98252.69;24590;1327;3069228;-71
2022/11/21 20:43:21;;;;;;;5.50;2.10;;;;;;;13.60;76.74;98263.20;24672;1326;3049863;-68
2022/11/21 20:45:51;;;;;;;10.70;2.40;;;;;;;14.10;75.29;98263.11;24646;1327;3028865;-66
2022/11/21 20:48:20;;;;;;;18.50;3.60;;;;;;;14.49;73.41;98252.55;24669;1319;3029614;-67
2022/11/21 20:50:53;;;;;;;13.80;3.80;;;;;;;14.48;72.94;98254.63;24655;1318;3050634;-68
2022/11/21 20:53:22;;;;;;;15.40;3.80;;;;;;;14.27;73.26;98254.51;24716;1327;3026999;-71
2022/11/21 20:55:51;;;;;;;12.80;3.50;;;;;;;13.96;74.26;98260.24;24592;1327;3069508;-73
2022/11/21 20:58:22;;;;;;;13.40;3.50;;;;;;;13.76;74.76;98256.38;24705;1320;3028004;-72
2022/11/21 21:00:51;;;;;;;11.80;3.60;;;;;;;13.67;75.21;98256.94;24631;1321;3029006;-73
2022/11/21 21:03:20;;;;;;;12.90;4.00;;;;;;;13.60;75.60;98256.86;24645;1334;3068522;-67
2022/11/21 21:05:54;;;;;;;17.80;5.20;;;;;;;13.48;75.83;98256.14;24618;1327;3027491;-71
2022/11/21 21:08:24;;;;;;;11.20;2.90;;;;;;;13.42;76.49;98248.66;24626;1324;3056954;-69
2022/11/21 21:11:04;;;;;;;18.40;3.40;;;;;;;14.06;74.39;98242.53;24630;1312;3053121;-67
2022/11/21 21:13:34;;;;;;;13.20;3.60;;;;;;;14.40;72.78;98223.85;24657;1326;3053460;-70
2022/11/21 21:16:22;;;;;;;20.00;3.60;;;;;;;14.41;72.41;98230.02;24617;1322;3026900;-70
2022/11/21 21:18:52;;;;;;;16.50;3.60;;;;;;;14.26;72.58;98241.69;24672;1334;3053826;-71
2022/11/21 21:21:26;;;;;;;23.00;4.00;;;;;;;14.09;73.11;98241.52;24589;1328;3028563;-67
2022/11/21 21:23:58;;;;;;;21.00;3.70;;;;;;;13.83;74.11;98245.78;24603;1318;3026968;-70
2022/11/21 21:26:53;;;;;;;23.80;4.20;;;;;;;13.73;74.37;98246.54;24700;1318;3051107;-71
2022/11/21 21:29:22;;;;;;;11.60;4.30;;;;;;;13.61;75.04;98252.13;24620;1320;3025765;-73
2022/11/21 21:33:05;;;;;;;21.30;3.90;;;;;;;13.60;75.47;98244.70;30849;1329;3013371;-70
2022/11/21 21:35:35;;;;;;;14.20;4.40;;;;;;;13.93;73.88;98230.88;24560;1331;3027179;-72
2022/11/21 21:38:04;;;;;;;13.10;3.60;;;;;;;13.77;74.42;98233.30;24556;1331;3027553;-74
2022/11/21 21:40:33;;;;;;;17.90;4.00;;;;;;;13.78;74.15;98231.41;24570;1331;3026873;-69
2022/11/21 21:43:02;;;;;;;17.10;4.20;;;;;;;13.58;75.06;98228.84;24594;1324;3067353;-70
2022/11/21 21:45:31;;;;;;;18.30;4.20;;;;;;;13.41;75.81;98229.39;23892;1331;4202039;-69
2022/11/21 21:48:00;;;;;;;19.10;4.20;;;;;;;13.29;76.29;98235.34;24487;1330;3025234;-70
2022/11/21 21:50:29;;;;;;;18.80;2.40;;;;;;;13.17;77.11;98244.36;24545;1330;3051348;-75
2022/11/21 21:52:59;;;;;;;13.10;2.90;;;;;;;13.61;75.80;98232.68;24669;1320;3028269;-70
2022/11/21 21:55:28;;;;;;;13.40;2.90;;;;;;;13.84;74.49;98227.88;24666;1321;3052643;-71
2022/11/21 21:57:57;;;;;;;17.20;3.90;;;;;;;13.98;74.13;98228.16;24536;1330;3028598;-71
2022/11/21 22:00:26;;;;;;;24.90;5.90;;;;;;;13.70;75.03;98236.23;24622;1331;3027290;-72
2022/11/21 22:02:55;;;;;;;17.70;3.80;;;;;;;13.50;75.65;98241.14;24518;1327;3053132;-69
2022/11/21 22:05:27;;;;;;;16.20;4.50;;;;;;;13.29;76.58;98240.98;24570;1320;3027624;-68
2022/11/21 22:07:58;;;;;;;11.20;3.50;;;;;;;13.09;77.71;98234.73;24545;1328;3028691;-70
2022/11/21 22:10:27;;;;;;;12.00;3.30;;;;;;;12.91;78.39;98237.17;24530;1330;3026507;-69
2022/11/21 22:12:56;;;;;;;12.30;2.40;;;;;;;12.85;78.98;98233.17;24607;1329;3027133;-71
2022/11/21 22:15:25;;;;;;;10.30;3.00;;;;;;;13.37;77.62;98214.79;24556;1331;3051306;-69
2022/11/21 22:17:54;;;;;;;11.70;2.60;;;;;;;13.73;76.31;98218.32;24542;1337;3026913;-69
2022/11/21 22:20:23;;;;;;;23.50;3.80;;;;;;;13.68;76.11;98227.45;24534;1330;3025982;-70
2022/11/21 22:22:52;;;;;;;16.40;3.20;;;;;;;13.47;76.89;98228.84;24598;1330;3052270;-69
2022/11/21 22:25:21;;;;;;;16.00;3.00;;;;;;;13.34;77.58;98226.98;24556;1321;3025625;-68
2022/11/21 22:27:52;;;;;;;16.00;3.80;;;;;;;13.06;78.96;98235.29;24621;1326;3051679;-69
2022/11/21 22:30:24;;;;;;;17.90;3.50;;;;;;;12.94;79.77;98232.50;24576;1320;3026942;-70
2022/11/21 22:32:54;;;;;;;12.40;2.30;;;;;;;12.90;80.23;98226.21;24574;1331;3053461;-70
2022/11/21 22:35:23;;;;;;;22.40;2.30;;;;;;;13.37;79.14;98221.11;24531;1323;3030471;-71
2022/11/21 22:37:52;;;;;;;15.60;2.60;;;;;;;13.76;76.97;98214.55;24612;1330;3026133;-72
2022/11/21 22:40:21;;;;;;;14.70;3.20;;;;;;;13.69;77.15;98212.95;24551;1326;3052713;-67
2022/11/21 22:42:50;;;;;;;20.10;3.10;;;;;;;13.43;78.18;98208.77;24595;1320;3026238;-71
2022/11/21 22:45:19;;;;;;;12.70;2.40;;;;;;;13.24;78.64;98206.10;24523;1330;3052189;-71
2022/11/21 22:47:49;;;;;;;20.40;3.10;;;;;;;13.17;78.99;98201.80;24552;1337;3027382;-69
2022/11/21 22:50:19;;;;;;;16.30;4.30;;;;;;;13.01;79.65;98189.97;24551;1337;3028699;-69
2022/11/21 22:52:47;;;;;;;10.10;2.20;;;;;;;12.92;80.21;98202.29;24564;1331;3027103;-68
2022/11/21 22:55:18;;;;;;;14.40;3.10;;;;;;;13.31;78.91;98202.45;24590;1329;3053037;-71
2022/11/21 22:57:47;;;;;;;10.90;1.80;;;;;;;13.73;77.05;98201.58;24549;1331;3027004;-69
2022/11/21 23:00:18;;;;;;;15.40;3.10;;;;;;;13.65;76.85;98202.15;24589;1324;3052547;-74
2022/11/21 23:02:51;;;;;;;14.80;3.70;;;;;;;13.55;76.94;98213.83;24566;1326;3030659;-67
2022/11/21 23:05:20;;;;;;;14.50;2.90;;;;;;;13.43;77.39;98221.58;24591;1331;3026692;-70
2022/11/21 23:07:50;;;;;;;17.20;3.10;;;;;;;13.13;78.46;98225.52;24583;1331;3052419;-70
2022/11/21 23:10:18;;;;;;;18.20;3.80;;;;;;;12.84;79.59;98227.31;24577;1323;3026282;-69
2022/11/21 23:12:49;;;;;;;16.40;2.50;;;;;;;12.69;81.14;98239.73;24591;1331;3057253;-71
2022/11/21 23:15:18;;;;;;;13.80;2.50;;;;;;;13.19;79.32;98239.75;24631;1321;3027144;-71
2022/11/21 23:17:51;;;;;;;10.90;3.10;;;;;;;13.59;77.75;98231.09;24589;1331;3027028;-69
2022/11/21 23:20:20;;;;;;;9.90;3.00;;;;;;;13.71;76.98;98221.52;24567;1330;3026935;-71
2022/11/21 23:22:50;;;;;;;16.40;2.80;;;;;;;13.52;77.43;98234.54;24590;1330;3027571;-70
2022/11/21 23:25:21;;;;;;;14.80;2.90;;;;;;;13.29;78.24;98237.94;24546;1331;3030280;-68
2022/11/21 23:27:50;;;;;;;25.10;4.50;;;;;;;13.03;79.60;98246.30;24605;1323;3027403;-72
2022/11/21 23:30:19;;;;;;;13.80;3.50;;;;;;;12.99;79.66;98241.58;24510;1331;3052107;-70
2022/11/21 23:32:48;;;;;;;11.00;1.80;;;;;;;12.74;81.01;98253.43;24596;1327;3027035;-68
2022/11/21 23:35:17;;;;;;;9.00;2.00;;;;;;;13.26;79.17;98239.70;24516;1330;3050114;-69
2022/11/21 23:37:46;;;;;;;14.00;3.50;;;;;;;13.64;77.41;98232.48;24605;1329;3027129;-69
2022/11/21 23:40:15;;;;;;;12.40;3.00;;;;;;;13.49;77.14;98248.19;24529;1330;3054604;-70
2022/11/21 23:42:46;;;;;;;11.50;3.30;;;;;;;13.21;78.37;98251.58;24523;1322;3028464;-69
2022/11/21 23:45:15;;;;;;;10.30;3.20;;;;;;;13.05;78.92;98248.44;24604;1319;3028552;-69
2022/11/21 23:47:44;;;;;;;16.80;3.30;;;;;;;12.82;80.03;98249.63;24577;1330;3053217;-70
2022/11/21 23:50:14;;;;;;;13.10;2.60;;;;;;;12.73;80.32;98252.49;24529;1330;3028984;-70
2022/11/21 23:52:44;;;;;;;11.80;2.70;;;;;;;12.59;80.92;98257.38;24597;1331;3027032;-70
2022/11/21 23:55:14;;;;;;;10.30;2.30;;;;;;;13.07;79.82;98247.90;24527;1315;3026088;-71
2022/11/21 23:57:47;;;;;;;9.90;2.80;;;;;;;13.63;77.29;98241.24;24578;1324;3054032;-71
